Time;durP1;ratioP1;P1;durP2;ratioP2;P2;SDS_P1;SDS_P2;PMS_P1;PMS_P2;Temp;Humidity;BMP_temperature;BMP_pressure;BME280_temperature;BME280_humidity;BME280_pressure;Samples;Min_cycle;Max_cycle;Signal;HPM_P1;HPM_P2
2024/04/08 00:02:31;;;;;;;11.25;1.80;;;13.80;40.50;;;;;;22712370;25;19994;-42
2024/04/08 00:12:32;;;;;;;9.32;2.17;;;13.70;39.60;;;;;;22712273;25;19994;-43
2024/04/08 00:22:33;;;;;;;8.07;1.73;;;13.70;55.90;;;;;;22703187;25;20005;-42
2024/04/08 00:32:34;;;;;;;12.10;2.00;;;13.60;76.60;;;;;;22709659;25;19998;-42
2024/04/08 00:42:36;;;;;;;9.05;2.30;;;13.60;66.30;;;;;;22709242;25;20001;-42
2024/04/08 00:52:38;;;;;;;6.40;1.55;;;13.60;44.90;;;;;;22714571;25;20481;-43
2024/04/08 01:02:39;;;;;;;7.57;1.52;;;13.70;17.40;;;;;;22696626;25;20003;-42
2024/04/08 01:12:41;;;;;;;6.75;1.70;;;13.70;12.20;;;;;;22421486;26;19999;-42
2024/04/08 01:22:46;;;;;;;11.15;1.83;;;13.80;15.50;;;;;;22428617;26;20450;-42
2024/04/08 01:32:48;;;;;;;6.90;1.75;;;13.80;14.60;;;;;;22434411;26;20000;-43
2024/04/08 01:42:49;;;;;;;9.98;1.90;;;13.80;10.40;;;;;;22423485;26;19991;-42
2024/04/08 01:52:50;;;;;;;6.50;2.17;;;13.80;9.00;;;;;;22423767;26;20054;-42
2024/04/08 02:02:52;;;;;;;9.18;2.05;;;13.80;9.60;;;;;;22421230;26;20822;-43
2024/04/08 02:12:52;;;;;;;5.28;2.72;;;13.80;10.20;;;;;;22436005;26;20007;-43
2024/04/08 02:22:53;;;;;;;8.82;3.65;;;13.80;23.20;;;;;;22447711;26;20013;-42
2024/04/08 02:32:54;;;;;;;6.72;3.45;;;13.70;42.00;;;;;;22446784;26;20031;-42
2024/04/08 02:42:55;;;;;;;7.30;4.20;;;13.60;63.70;;;;;;22433605;26;20028;-42
2024/04/08 02:52:57;;;;;;;10.63;4.50;;;13.50;90.40;;;;;;22437684;26;20007;-43
2024/04/08 03:02:58;;;;;;;8.90;4.53;;;13.50;99.90;;;;;;22440181;26;19991;-42
2024/04/08 03:12:59;;;;;;;9.45;4.93;;;13.50;99.90;;;;;;22443540;26;20043;-43
2024/04/08 03:23:00;;;;;;;11.23;6.07;;;13.40;99.90;;;;;;22439194;26;20074;-42
2024/04/08 03:33:01;;;;;;;9.27;5.90;;;13.40;99.90;;;;;;22434470;26;20003;-42
2024/04/08 03:43:02;;;;;;;12.10;6.63;;;13.30;99.90;;;;;;22431025;26;20016;-42
2024/04/08 03:53:03;;;;;;;7.45;6.05;;;13.20;99.90;;;;;;22438951;26;20549;-42
2024/04/08 04:03:04;;;;;;;9.95;6.53;;;13.20;99.90;;;;;;22430288;26;20362;-42
2024/04/08 04:13:05;;;;;;;9.55;5.72;;;13.10;99.90;;;;;;22425773;26;19999;-42
2024/04/08 04:23:09;;;;;;;11.90;5.82;;;13.10;99.90;;;;;;22423187;26;20006;-42
2024/04/08 04:33:12;;;;;;;8.77;5.72;;;13.10;99.90;;;;;;22431184;26;20087;-42
2024/04/08 04:43:12;;;;;;;11.23;5.30;;;13.20;99.90;;;;;;22434012;26;20000;-42
2024/04/08 04:53:14;;;;;;;5.95;4.40;;;13.10;99.90;;;;;;22442028;26;20030;-42
2024/04/08 05:03:15;;;;;;;10.80;5.10;;;13.10;99.90;;;;;;22428286;26;20350;-42
2024/04/08 05:13:17;;;;;;;8.48;4.40;;;13.10;99.90;;;;;;22436930;26;20354;-42
2024/04/08 05:23:23;;;;;;;7.03;4.53;;;13.20;99.90;;;;;;22443112;26;20504;-42
2024/04/08 05:33:24;;;;;;;7.82;4.18;;;13.20;99.90;;;;;;22448194;26;20015;-42
2024/04/08 05:43:25;;;;;;;7.35;4.05;;;13.20;99.90;;;;;;22498824;26;20013;-42
2024/04/08 05:53:26;;;;;;;7.15;3.97;;;13.20;99.90;;;;;;22745320;25;20474;-42
2024/04/08 06:03:27;;;;;;;8.32;4.20;;;13.20;99.90;;;;;;22742600;25;20070;-42
2024/04/08 06:13:30;;;;;;;9.45;4.60;;;13.30;99.90;;;;;;22749555;25;20014;-43
2024/04/08 06:23:31;;;;;;;8.27;4.28;;;13.30;99.90;;;;;;22742563;26;20559;-42
2024/04/08 06:33:32;;;;;;;6.15;3.75;;;13.40;99.90;;;;;;22741398;25;20563;-43
2024/04/08 06:43:33;;;;;;;5.68;3.97;;;13.40;99.90;;;;;;22742358;26;20005;-43
2024/04/08 06:53:34;;;;;;;8.48;4.57;;;13.50;99.90;;;;;;22747232;26;20012;-43
2024/04/08 07:03:35;;;;;;;5.90;4.63;;;13.70;99.90;;;;;;22759955;25;20645;-42
2024/04/08 07:13:38;;;;;;;7.05;4.30;;;13.80;99.50;;;;;;22757918;25;20116;-42
2024/04/08 07:23:39;;;;;;;8.23;4.78;;;13.90;98.90;;;;;;22756453;25;20070;-42
2024/04/08 07:33:40;;;;;;;8.05;4.18;;;13.90;92.50;;;;;;22752285;25;20037;-43
2024/04/08 07:43:41;;;;;;;8.10;4.72;;;14.10;87.00;;;;;;22714531;26;20329;-43
2024/04/08 07:53:42;;;;;;;7.18;4.35;;;14.40;59.10;;;;;;22751810;26;20013;-42
2024/04/08 08:03:43;;;;;;;6.18;4.50;;;14.40;55.70;;;;;;22754449;25;20006;-42
2024/04/08 08:13:44;;;;;;;8.60;5.30;;;14.40;42.20;;;;;;22748235;25;20037;-42
2024/04/08 08:23:45;;;;;;;7.72;3.38;;;14.60;36.60;;;;;;22752248;25;20061;-42
2024/04/08 08:33:46;;;;;;;6.35;3.40;;;14.90;21.90;;;;;;22750739;25;20002;-45
2024/04/08 08:43:50;;;;;;;5.47;2.90;;;15.00;10.50;;;;;;22749656;26;19993;-43
2024/04/08 08:53:51;;;;;;;3.65;1.67;;;15.40;5.50;;;;;;22749789;25;19990;-42
2024/04/08 09:03:54;;;;;;;5.75;1.80;;;15.70;1.00;;;;;;22748223;25;20503;-42
2024/04/08 09:14:07;;;;;;;4.07;1.92;;;16.20;1.00;;;;;;22745723;25;20012;-42
2024/04/08 09:24:08;;;;;;;2.63;1.60;;;16.40;1.00;;;;;;22746337;26;20441;-42
2024/04/08 09:34:10;;;;;;;4.10;2.17;;;17.00;1.00;;;;;;22750401;26;19998;-43
2024/04/08 09:44:13;;;;;;;4.05;1.98;;;17.00;1.00;;;;;;22741528;26;19991;-43
2024/04/08 09:54:15;;;;;;;4.63;2.10;;;17.10;1.00;;;;;;22752787;26;20005;-43
2024/04/08 10:04:22;;;;;;;4.07;2.80;;;17.20;1.00;;;;;;22743961;25;20521;-43
2024/04/08 10:14:24;;;;;;;6.88;3.50;;;17.40;1.00;;;;;;22754690;25;19998;-43
2024/04/08 10:24:29;;;;;;;18.08;6.35;;;17.80;1.00;;;;;;22751041;25;20564;-43
2024/04/08 10:34:30;;;;;;;8.02;4.57;;;17.40;1.00;;;;;;22759819;25;20069;-43
2024/04/08 10:44:31;;;;;;;9.00;4.70;;;17.10;1.00;;;;;;22754866;26;20343;-43
2024/04/08 10:54:32;;;;;;;7.22;4.20;;;17.20;1.00;;;;;;22761151;26;20009;-45
2024/04/08 11:04:33;;;;;;;4.43;2.80;;;17.10;1.00;;;;;;22753425;25;20000;-43
2024/04/08 11:14:35;;;;;;;6.68;2.53;;;17.10;1.00;;;;;;22750909;25;20030;-43
2024/04/08 11:24:42;;;;;;;5.05;2.05;;;17.60;1.00;;;;;;22753366;25;20079;-43
2024/04/08 11:34:44;;;;;;;5.67;2.60;;;17.80;1.00;;;;;;22752243;25;19998;-43
2024/04/08 11:44:45;;;;;;;4.50;2.30;;;18.00;1.00;;;;;;22750375;25;20518;-43
2024/04/08 11:54:46;;;;;;;6.13;2.80;;;18.70;1.00;;;;;;22747413;26;20259;-43
2024/04/08 12:04:47;;;;;;;7.43;3.40;;;18.80;1.00;;;;;;22755653;25;19997;-43
2024/04/08 12:14:48;;;;;;;7.05;3.70;;;18.30;1.00;;;;;;22752128;25;20013;-42
2024/04/08 12:24:49;;;;;;;8.20;3.67;;;18.10;1.00;;;;;;22750741;26;20030;-43
2024/04/08 12:34:51;;;;;;;7.15;4.30;;;17.90;1.00;;;;;;22750163;26;20387;-43
2024/04/08 12:44:52;;;;;;;6.10;4.32;;;18.00;1.00;;;;;;22750919;26;20357;-43
2024/04/08 12:54:53;;;;;;;6.13;4.13;;;18.00;1.00;;;;;;22750675;25;19997;-43
2024/04/08 13:04:54;;;;;;;4.75;3.05;;;17.90;1.00;;;;;;22748655;25;20002;-43
2024/04/08 13:14:55;;;;;;;5.28;3.53;;;18.10;1.00;;;;;;22753319;25;20041;-43
2024/04/08 13:24:57;;;;;;;6.85;3.20;;;18.40;1.00;;;;;;22746902;26;20016;-43
2024/04/08 13:34:58;;;;;;;6.40;3.83;;;18.30;1.00;;;;;;22750725;26;20005;-43
2024/04/08 13:44:59;;;;;;;8.00;3.95;;;18.40;1.00;;;;;;22743437;26;20001;-43
2024/04/08 13:55:00;;;;;;;5.47;3.53;;;18.70;1.00;;;;;;22745266;25;20016;-43
2024/04/08 14:05:03;;;;;;;6.38;3.70;;;18.90;1.00;;;;;;22755491;25;19997;-43
2024/04/08 14:15:06;;;;;;;5.72;2.53;;;19.90;1.00;;;;;;22761868;26;19994;-43
2024/04/08 14:25:07;;;;;;;7.72;3.63;;;20.30;1.00;;;;;;22669348;25;21125;-44
2024/04/08 14:35:08;;;;;;;6.40;3.83;;;20.00;1.00;;;;;;22720764;25;20021;-43
2024/04/08 14:45:09;;;;;;;5.25;4.13;;;19.60;1.00;;;;;;22702795;25;20037;-43
2024/04/08 14:55:15;;;;;;;7.10;5.25;;;19.40;1.00;;;;;;22733694;25;19994;-45
2024/04/08 15:05:16;;;;;;;8.95;5.38;;;19.30;1.00;;;;;;22726230;25;20002;-45
2024/04/08 15:15:17;;;;;;;9.60;7.05;;;19.20;1.00;;;;;;22724968;25;20420;-46
2024/04/08 15:25:18;;;;;;;10.38;5.40;;;19.20;1.00;;;;;;22723077;25;19990;-46
2024/04/08 15:35:19;;;;;;;8.63;6.40;;;19.40;1.00;;;;;;22734304;26;20045;-46
2024/04/08 15:45:20;;;;;;;7.93;4.55;;;19.80;1.00;;;;;;22728591;25;20002;-46
2024/04/08 15:55:21;;;;;;;9.13;5.18;;;19.90;1.00;;;;;;22739184;26;19997;-46
2024/04/08 16:05:23;;;;;;;9.02;4.63;;;19.90;1.00;;;;;;22744231;26;20002;-46
2024/04/08 16:15:24;;;;;;;7.43;4.65;;;19.80;1.00;;;;;;22746114;26;20485;-46
2024/04/08 16:25:25;;;;;;;7.97;3.88;;;19.70;1.00;;;;;;22735291;26;20001;-46
2024/04/08 16:35:26;;;;;;;5.20;2.70;;;19.60;1.00;;;;;;22724002;26;19998;-45
2024/04/08 16:45:27;;;;;;;7.68;2.67;;;19.50;1.00;;;;;;22730974;25;19994;-48
2024/04/08 16:55:28;;;;;;;6.47;3.17;;;19.40;1.00;;;;;;22731392;26;20017;-44
2024/04/08 17:05:29;;;;;;;7.13;3.10;;;19.50;1.00;;;;;;22701095;25;19989;-45
2024/04/08 17:15:30;;;;;;;10.60;4.75;;;19.40;1.00;;;;;;22705461;25;19994;-44
2024/04/08 17:25:31;;;;;;;10.02;5.47;;;19.40;1.00;;;;;;22707427;25;20005;-47
2024/04/08 17:35:39;;;;;;;10.50;5.07;;;19.20;1.00;;;;;;22713086;25;20072;-46
2024/04/08 17:45:40;;;;;;;;;;;19.20;1.00;;;;;;22728159;25;19994;-45
2024/04/08 17:55:42;;;;;;;9.20;4.68;;;19.00;1.00;;;;;;22714639;25;19923;-45
2024/04/08 18:05:45;;;;;;;8.05;4.18;;;18.90;1.00;;;;;;22696444;25;20086;-45
2024/04/08 18:15:45;;;;;;;9.75;6.20;;;18.90;1.00;;;;;;22703800;25;20032;-45
2024/04/08 18:25:54;;;;;;;10.43;4.68;;;18.80;1.00;;;;;;22715695;25;20030;-45
2024/04/08 18:35:55;;;;;;;8.73;4.30;;;18.70;1.00;;;;;;22712460;26;20013;-45
2024/04/08 18:45:57;;;;;;;10.85;4.60;;;18.50;1.00;;;;;;22711387;25;20449;-45
2024/04/08 18:55:58;;;;;;;10.90;5.20;;;18.30;1.00;;;;;;22724993;26;20033;-45
2024/04/08 19:05:59;;;;;;;17.55;9.50;;;18.10;1.00;;;;;;22726049;25;20095;-45
2024/04/08 19:16:04;;;;;;;13.38;8.77;;;18.00;1.00;;;;;;22725244;25;20734;-45
2024/04/08 19:26:06;;;;;;;13.93;7.70;;;18.00;1.00;;;;;;22735053;25;20005;-45
2024/04/08 19:36:07;;;;;;;14.88;8.77;;;17.80;1.00;;;;;;22738543;25;20054;-45
2024/04/08 19:46:12;;;;;;;13.15;9.15;;;17.70;1.00;;;;;;22740271;25;20017;-45
2024/04/08 19:56:17;;;;;;;14.43;9.15;;;17.50;1.00;;;;;;22717010;26;19998;-45
2024/04/08 20:06:18;;;;;;;15.18;8.90;;;17.40;1.00;;;;;;22714895;25;20021;-46
2024/04/08 20:16:20;;;;;;;17.55;10.82;;;17.30;1.00;;;;;;22719136;25;20172;-45
2024/04/08 20:26:21;;;;;;;20.27;13.30;;;17.10;1.00;;;;;;22713415;25;20072;-45
2024/04/08 20:36:22;;;;;;;21.10;11.85;;;17.00;1.00;;;;;;22716155;25;20013;-45
2024/04/08 20:46:25;;;;;;;22.55;13.98;;;16.90;1.00;;;;;;22701649;25;20005;-46
2024/04/08 20:56:26;;;;;;;22.73;14.60;;;16.70;1.00;;;;;;22713642;25;19993;-45
2024/04/08 21:06:27;;;;;;;21.00;14.30;;;16.60;3.50;;;;;;22710921;25;20548;-45
2024/04/08 21:16:28;;;;;;;20.45;14.90;;;16.50;7.50;;;;;;22699209;25;19997;-45
2024/04/08 21:26:29;;;;;;;20.75;14.43;;;16.50;11.60;;;;;;22696048;26;20009;-46
2024/04/08 21:36:30;;;;;;;14.88;12.30;;;16.50;14.70;;;;;;22707859;25;19994;-45
2024/04/08 21:46:31;;;;;;;19.95;14.20;;;16.40;18.90;;;;;;22668994;25;20080;-46
2024/04/08 21:56:32;;;;;;;16.48;13.73;;;16.30;24.20;;;;;;22692258;25;20350;-46
2024/04/08 22:06:33;;;;;;;18.58;14.60;;;16.30;27.90;;;;;;22698602;25;20550;-46
2024/04/08 22:16:35;;;;;;;23.95;15.75;;;16.30;33.60;;;;;;22721395;25;20013;-46
2024/04/08 22:26:36;;;;;;;21.00;14.45;;;16.30;36.70;;;;;;22721216;25;20005;-46
2024/04/08 22:36:37;;;;;;;27.42;17.52;;;16.30;39.40;;;;;;22720428;25;20069;-47
2024/04/08 22:46:38;;;;;;;16.67;10.85;;;16.40;64.60;;;;;;22718741;25;19997;-46
2024/04/08 22:56:40;;;;;;;17.85;13.00;;;15.10;99.90;;;;;;22724813;25;20367;-47
2024/04/08 23:06:41;;;;;;;20.95;16.20;;;14.80;99.90;;;;;;22718827;25;20038;-45
2024/04/08 23:16:42;;;;;;;25.90;15.23;;;14.70;99.90;;;;;;22727770;25;20042;-45
2024/04/08 23:26:43;;;;;;;15.65;10.18;;;14.60;99.90;;;;;;22698428;25;20017;-46
2024/04/08 23:36:44;;;;;;;12.10;6.55;;;14.50;99.90;;;;;;22724398;25;20006;-47
2024/04/08 23:46:45;;;;;;;9.13;5.15;;;14.40;99.90;;;;;;22717792;25;20018;-46
2024/04/08 23:56:46;;;;;;;5.53;4.18;;;14.40;99.90;;;;;;22721859;25;20025;-46
